Maersk Barry — OYJE2 — position and weather

sailwx.info

Track history (hours):
 
Tides and Currents Weather Stations Pressure Air Temp Water Temp Dewpoint Dewpoint Depression Visibility Wind Speed Wind Dir Waves Ship Positions

Maersk Barry

Last reported at 2017-Oct-03 16:30 UTC. Time now 2017-Oct-19 20:20 UTC.
Position N 01°16' E 104°03'.
Warning: this ship's position is 16 days out of date.

Length 175 m; draft 7 m.

Type: Ship. MMSI: 219127000.

Date/timePositionNaut miles runAvg speedWind from/ knotsBaromVisibWave heightAir tempDewpointWater temp
2017-Oct-03 16:30N 01°16' E 104°03'1 2.3
2017-Oct-03 15:56N 01°16' E 104°04'4 2.0
2017-Oct-03 13:54N 01°17' E 104°08'2 1.6
2017-Oct-03 12:49N 01°17' E 104°10'4814.9
2017-Oct-03 09:37N 01°17' E 103°22'210.5
2017-Oct-03 09:28N 01°15' E 103°23'610.2
2017-Oct-03 08:55N 01°14' E 103°29'410.1
2017-Oct-03 08:30N 01°13' E 103°33'5 9.6
2017-Oct-03 08:00N 01°12' E 103°37'3 6.7
2017-Oct-03 07:30N 01°11' E 103°40'2 3.2
2017-Oct-03 07:00N 01°10' E 103°42'3 5.9
2017-Oct-03 06:30N 01°08' E 103°44'4 8.7
2017-Oct-03 06:00N 01°10' E 103°48'611.3
2017-Oct-03 05:30N 01°13' E 103°53'4 8.2
2017-Oct-03 05:00N 01°14' E 103°57'4 8.2
2017-Oct-03 04:30N 01°15' E 104°01'510.1
2017-Oct-03 03:58N 01°17' E 104°06'6 8.6
2017-Oct-03 03:16N 01°18' E 104°12'  
2017-Sep-27 13:35N 23°22' E 117°39'312.6
2017-Sep-27 13:21N 23°24' E 117°41'1712.0
2017-Sep-27 11:57N 23°36' E 117°54'2211.9
2017-Sep-27 10:08N 23°54' E 118°07'212.0
2017-Sep-27 10:00N 23°55' E 118°09'611.9
2017-Sep-27 09:29N 23°60' E 118°13'611.8
2017-Sep-27 08:59N 24°04' E 118°16'611.8
2017-Sep-27 08:30N 24°10' E 118°17'511.0
2017-Sep-27 08:00N 24°14' E 118°13'510.4
2017-Sep-27 07:30N 24°19' E 118°11'611.0
2017-Sep-27 07:00N 24°23' E 118°07'510.2
2017-Sep-27 06:30N 24°26' E 118°02'2 0.1
2017-Sep-26 00:28N 24°27' E 117°60'1 2.4
2017-Sep-26 00:00N 24°27' E 118°01'5 9.7
2017-Sep-25 23:31N 24°25' E 118°06'510.5
2017-Sep-25 23:01N 24°21' E 118°10'611.0
2017-Sep-25 22:30N 24°15' E 118°11'510.3
2017-Sep-25 22:00N 24°13' E 118°16'5 9.9
2017-Sep-25 21:30N 24°09' E 118°20'1 1.3
2017-Sep-25 20:57N 24°08' E 118°20'0 0.0
2017-Sep-25 20:27N 24°08' E 118°20'0 0.0
2017-Sep-25 19:45N 24°08' E 118°20'0 0.2
2017-Sep-25 19:27N 24°08' E 118°20'0 0.0
2017-Sep-25 18:57N 24°08' E 118°20'0 0.0
2017-Sep-25 18:21N 24°09' E 118°20'0 0.0
2017-Sep-25 17:45N 24°09' E 118°20'0 0.0
2017-Sep-25 17:27N 24°09' E 118°20'0 0.0
2017-Sep-25 16:57N 24°09' E 118°20'0 0.0
2017-Sep-25 16:27N 24°09' E 118°20'0 0.0
2017-Sep-25 14:51N 24°09' E 118°20'0 0.0
2017-Sep-25 13:55N 24°09' E 118°20'0 0.0
2017-Sep-25 13:21N 24°08' E 118°20'0 0.0
2017-Sep-25 12:27N 24°08' E 118°20'0 0.0
2017-Sep-25 11:57N 24°08' E 118°20'0 0.0
2017-Sep-25 11:21N 24°09' E 118°20'0 0.0
2017-Sep-25 10:27N 24°08' E 118°20'0 0.1
2017-Sep-25 09:37N 24°08' E 118°20'0 0.2
2017-Sep-25 09:27N 24°09' E 118°20'0 0.0
2017-Sep-25 08:21N 24°08' E 118°20'0 0.0
2017-Sep-25 07:57N 24°09' E 118°20'0 0.1
2017-Sep-25 07:03N 24°09' E 118°20'0 0.0
2017-Sep-25 06:55N 24°09' E 118°20'0 0.1
2017-Sep-25 06:27N 24°09' E 118°20'0 0.1
2017-Sep-25 05:57N 24°09' E 118°20'0 0.0
2017-Sep-25 05:01N 24°09' E 118°20'0 0.1
2017-Sep-25 04:27N 24°09' E 118°20'0 0.3
2017-Sep-25 03:52N 24°08' E 118°20'1 3.8
2017-Sep-25 03:30N 24°07' E 118°21'4 7.5
2017-Sep-25 03:00N 24°04' E 118°19'713.8
2017-Sep-25 02:30N 23°59' E 118°14'713.4
2017-Sep-25 02:00N 23°54' E 118°09'713.6
2017-Sep-25 01:30N 23°49' E 118°04'  
Track history (hours):
 
Tides and Currents Weather Stations Pressure Air Temp Water Temp Dewpoint Dewpoint Depression Visibility Wind Speed Wind Dir Waves Ship Positions

Maersk Barry

Last reported at 2017-Oct-03 16:30 UTC. Time now 2017-Oct-19 20:20 UTC.
Position N 01°16' E 104°03'.
Warning: this ship's position is 16 days out of date.

Length 175 m; draft 7 m.

Type: Ship. MMSI: 219127000.

Date/timePositionNaut miles runAvg speedWind from/ knotsBaromVisibWave heightAir tempDewpointWater temp
2017-Oct-03 16:30N 01°16' E 104°03'1 2.3
2017-Oct-03 15:56N 01°16' E 104°04'4 2.0
2017-Oct-03 13:54N 01°17' E 104°08'2 1.6
2017-Oct-03 12:49N 01°17' E 104°10'4814.9
2017-Oct-03 09:37N 01°17' E 103°22'210.5
2017-Oct-03 09:28N 01°15' E 103°23'610.2
2017-Oct-03 08:55N 01°14' E 103°29'410.1
2017-Oct-03 08:30N 01°13' E 103°33'5 9.6
2017-Oct-03 08:00N 01°12' E 103°37'3 6.7
2017-Oct-03 07:30N 01°11' E 103°40'2 3.2
2017-Oct-03 07:00N 01°10' E 103°42'3 5.9
2017-Oct-03 06:30N 01°08' E 103°44'4 8.7
2017-Oct-03 06:00N 01°10' E 103°48'611.3
2017-Oct-03 05:30N 01°13' E 103°53'4 8.2
2017-Oct-03 05:00N 01°14' E 103°57'4 8.2
2017-Oct-03 04:30N 01°15' E 104°01'510.1
2017-Oct-03 03:58N 01°17' E 104°06'6 8.6
2017-Oct-03 03:16N 01°18' E 104°12'  
2017-Sep-27 13:35N 23°22' E 117°39'312.6
2017-Sep-27 13:21N 23°24' E 117°41'1712.0
2017-Sep-27 11:57N 23°36' E 117°54'2211.9
2017-Sep-27 10:08N 23°54' E 118°07'212.0
2017-Sep-27 10:00N 23°55' E 118°09'611.9
2017-Sep-27 09:29N 23°60' E 118°13'611.8
2017-Sep-27 08:59N 24°04' E 118°16'611.8
2017-Sep-27 08:30N 24°10' E 118°17'511.0
2017-Sep-27 08:00N 24°14' E 118°13'510.4
2017-Sep-27 07:30N 24°19' E 118°11'611.0
2017-Sep-27 07:00N 24°23' E 118°07'510.2
2017-Sep-27 06:30N 24°26' E 118°02'2 0.1
2017-Sep-26 00:28N 24°27' E 117°60'1 2.4
2017-Sep-26 00:00N 24°27' E 118°01'5 9.7
2017-Sep-25 23:31N 24°25' E 118°06'510.5
2017-Sep-25 23:01N 24°21' E 118°10'611.0
2017-Sep-25 22:30N 24°15' E 118°11'510.3
2017-Sep-25 22:00N 24°13' E 118°16'5 9.9
2017-Sep-25 21:30N 24°09' E 118°20'1 1.3
2017-Sep-25 20:57N 24°08' E 118°20'0 0.0
2017-Sep-25 20:27N 24°08' E 118°20'0 0.0
2017-Sep-25 19:45N 24°08' E 118°20'0 0.2
2017-Sep-25 19:27N 24°08' E 118°20'0 0.0
2017-Sep-25 18:57N 24°08' E 118°20'0 0.0
2017-Sep-25 18:21N 24°09' E 118°20'0 0.0
2017-Sep-25 17:45N 24°09' E 118°20'0 0.0
2017-Sep-25 17:27N 24°09' E 118°20'0 0.0
2017-Sep-25 16:57N 24°09' E 118°20'0 0.0
2017-Sep-25 16:27N 24°09' E 118°20'0 0.0
2017-Sep-25 14:51N 24°09' E 118°20'0 0.0
2017-Sep-25 13:55N 24°09' E 118°20'0 0.0
2017-Sep-25 13:21N 24°08' E 118°20'0 0.0
2017-Sep-25 12:27N 24°08' E 118°20'0 0.0
2017-Sep-25 11:57N 24°08' E 118°20'0 0.0
2017-Sep-25 11:21N 24°09' E 118°20'0 0.0
2017-Sep-25 10:27N 24°08' E 118°20'0 0.1
2017-Sep-25 09:37N 24°08' E 118°20'0 0.2
2017-Sep-25 09:27N 24°09' E 118°20'0 0.0
2017-Sep-25 08:21N 24°08' E 118°20'0 0.0
2017-Sep-25 07:57N 24°09' E 118°20'0 0.1
2017-Sep-25 07:03N 24°09' E 118°20'0 0.0
2017-Sep-25 06:55N 24°09' E 118°20'0 0.1
2017-Sep-25 06:27N 24°09' E 118°20'0 0.1
2017-Sep-25 05:57N 24°09' E 118°20'0 0.0
2017-Sep-25 05:01N 24°09' E 118°20'0 0.1
2017-Sep-25 04:27N 24°09' E 118°20'0 0.3
2017-Sep-25 03:52N 24°08' E 118°20'1 3.8
2017-Sep-25 03:30N 24°07' E 118°21'4 7.5
2017-Sep-25 03:00N 24°04' E 118°19'713.8
2017-Sep-25 02:30N 23°59' E 118°14'713.4
2017-Sep-25 02:00N 23°54' E 118°09'713.6
2017-Sep-25 01:30N 23°49' E 118°04'  

Dump ship's entire track history